EmailTwitter


Surface observations / France / LFBP (07610)

Regions: Quebec | Canada | USA | Europe | France | UK | Elsewhere
Station
Display
Info & Location for LFBP (07610) | Help decoding METAR

Weather Conditions observed on 2019/02/16 at 13:00 UTC at PONT-LONG-UZEIN/, FR (LFBP)

Temperature: 20.0 Celsius.

Dewpoint: 2.0 Celsius.

Relative Humidity: 30%

Winds: Northeast at 9 km/h or 5 knots.

Mean Sea level Pressure: 102.50 kilopascals.

Coded METAR:

LFBP 161300Z AUTO 06005KT 020V110 CAVOK 20/02 Q1025 NOSIG=